sensor_id;sensor_type;location;lat;lon;timestamp;P1;durP1;ratioP1;P2;durP2;ratioP2
74833;SDS011;63361;52.384;20.930;2023-04-15T00:00:36;11.27;;;6.70;;
74833;SDS011;63361;52.384;20.930;2023-04-15T00:03:01;15.43;;;7.13;;
74833;SDS011;63361;52.384;20.930;2023-04-15T00:05:28;11.40;;;6.83;;
74833;SDS011;63361;52.384;20.930;2023-04-15T00:07:54;10.55;;;6.05;;
74833;SDS011;63361;52.384;20.930;2023-04-15T00:10:20;11.87;;;6.90;;
74833;SDS011;63361;52.384;20.930;2023-04-15T00:12:45;11.77;;;6.57;;
74833;SDS011;63361;52.384;20.930;2023-04-15T00:15:10;10.20;;;5.70;;
74833;SDS011;63361;52.384;20.930;2023-04-15T00:17:36;9.40;;;6.27;;
74833;SDS011;63361;52.384;20.930;2023-04-15T00:20:03;12.95;;;6.60;;
74833;SDS011;63361;52.384;20.930;2023-04-15T00:22:30;10.75;;;6.72;;
74833;SDS011;63361;52.384;20.930;2023-04-15T00:24:56;10.75;;;6.25;;
74833;SDS011;63361;52.384;20.930;2023-04-15T00:27:22;10.80;;;6.10;;
74833;SDS011;63361;52.384;20.930;2023-04-15T00:29:47;10.50;;;6.63;;
74833;SDS011;63361;52.384;20.930;2023-04-15T00:32:12;9.87;;;6.17;;
74833;SDS011;63361;52.384;20.930;2023-04-15T00:34:38;9.82;;;6.53;;
74833;SDS011;63361;52.384;20.930;2023-04-15T00:37:03;9.23;;;5.77;;
74833;SDS011;63361;52.384;20.930;2023-04-15T00:39:28;11.07;;;6.87;;
74833;SDS011;63361;52.384;20.930;2023-04-15T00:41:54;10.15;;;5.68;;
74833;SDS011;63361;52.384;20.930;2023-04-15T00:44:21;11.13;;;6.73;;
74833;SDS011;63361;52.384;20.930;2023-04-15T00:46:47;9.52;;;6.20;;
74833;SDS011;63361;52.384;20.930;2023-04-15T00:49:14;10.95;;;6.80;;
74833;SDS011;63361;52.384;20.930;2023-04-15T00:51:40;10.93;;;7.17;;
74833;SDS011;63361;52.384;20.930;2023-04-15T00:54:05;11.50;;;7.03;;
74833;SDS011;63361;52.384;20.930;2023-04-15T00:56:35;12.23;;;7.47;;
74833;SDS011;63361;52.384;20.930;2023-04-15T00:59:02;11.50;;;6.80;;
74833;SDS011;63361;52.384;20.930;2023-04-15T01:01:27;14.70;;;7.50;;
74833;SDS011;63361;52.384;20.930;2023-04-15T01:03:54;11.95;;;7.25;;
74833;SDS011;63361;52.384;20.930;2023-04-15T01:06:21;14.88;;;7.68;;
74833;SDS011;63361;52.384;20.930;2023-04-15T01:08:47;11.97;;;7.50;;
74833;SDS011;63361;52.384;20.930;2023-04-15T01:11:12;12.10;;;7.77;;
74833;SDS011;63361;52.384;20.930;2023-04-15T01:13:39;13.95;;;7.97;;
74833;SDS011;63361;52.384;20.930;2023-04-15T01:16:05;12.20;;;8.00;;
74833;SDS011;63361;52.384;20.930;2023-04-15T01:18:32;12.57;;;7.37;;
74833;SDS011;63361;52.384;20.930;2023-04-15T01:20:59;14.13;;;7.93;;
74833;SDS011;63361;52.384;20.930;2023-04-15T01:23:26;13.82;;;8.65;;
74833;SDS011;63361;52.384;20.930;2023-04-15T01:25:52;12.60;;;7.87;;
74833;SDS011;63361;52.384;20.930;2023-04-15T01:28:17;13.55;;;8.32;;
74833;SDS011;63361;52.384;20.930;2023-04-15T01:30:43;14.57;;;8.23;;
74833;SDS011;63361;52.384;20.930;2023-04-15T01:33:08;12.93;;;8.33;;
74833;SDS011;63361;52.384;20.930;2023-04-15T01:35:34;13.23;;;8.23;;
74833;SDS011;63361;52.384;20.930;2023-04-15T01:38:02;12.53;;;8.87;;
74833;SDS011;63361;52.384;20.930;2023-04-15T01:40:30;15.57;;;8.47;;
74833;SDS011;63361;52.384;20.930;2023-04-15T01:42:56;14.20;;;8.35;;
74833;SDS011;63361;52.384;20.930;2023-04-15T01:45:21;13.80;;;8.87;;
74833;SDS011;63361;52.384;20.930;2023-04-15T01:47:47;14.10;;;8.60;;
74833;SDS011;63361;52.384;20.930;2023-04-15T01:50:13;14.43;;;8.93;;
74833;SDS011;63361;52.384;20.930;2023-04-15T01:52:39;14.20;;;9.07;;
74833;SDS011;63361;52.384;20.930;2023-04-15T01:55:05;14.52;;;8.93;;
74833;SDS011;63361;52.384;20.930;2023-04-15T01:57:32;15.50;;;9.50;;
74833;SDS011;63361;52.384;20.930;2023-04-15T01:59:57;17.27;;;9.77;;
74833;SDS011;63361;52.384;20.930;2023-04-15T02:02:22;13.50;;;9.07;;
74833;SDS011;63361;52.384;20.930;2023-04-15T02:04:47;14.63;;;9.43;;
74833;SDS011;63361;52.384;20.930;2023-04-15T02:07:13;15.93;;;10.00;;
74833;SDS011;63361;52.384;20.930;2023-04-15T02:09:38;17.33;;;10.10;;
74833;SDS011;63361;52.384;20.930;2023-04-15T02:12:04;17.10;;;9.63;;
74833;SDS011;63361;52.384;20.930;2023-04-15T02:14:29;16.27;;;10.60;;
74833;SDS011;63361;52.384;20.930;2023-04-15T02:16:55;17.00;;;10.07;;
74833;SDS011;63361;52.384;20.930;2023-04-15T02:19:21;16.05;;;10.30;;
74833;SDS011;63361;52.384;20.930;2023-04-15T02:21:46;15.90;;;9.67;;
74833;SDS011;63361;52.384;20.930;2023-04-15T02:24:11;15.30;;;9.87;;
74833;SDS011;63361;52.384;20.930;2023-04-15T02:26:36;16.80;;;11.10;;
74833;SDS011;63361;52.384;20.930;2023-04-15T02:29:02;16.77;;;10.47;;
74833;SDS011;63361;52.384;20.930;2023-04-15T02:31:28;16.48;;;11.00;;
74833;SDS011;63361;52.384;20.930;2023-04-15T02:33:53;17.30;;;10.60;;
74833;SDS011;63361;52.384;20.930;2023-04-15T02:36:18;18.00;;;11.87;;
74833;SDS011;63361;52.384;20.930;2023-04-15T02:38:45;19.33;;;11.80;;
74833;SDS011;63361;52.384;20.930;2023-04-15T02:41:10;21.27;;;12.10;;
74833;SDS011;63361;52.384;20.930;2023-04-15T02:43:36;18.90;;;12.57;;
74833;SDS011;63361;52.384;20.930;2023-04-15T02:46:03;20.40;;;11.90;;
74833;SDS011;63361;52.384;20.930;2023-04-15T02:48:29;21.77;;;12.00;;
74833;SDS011;63361;52.384;20.930;2023-04-15T02:51:09;20.07;;;12.60;;
74833;SDS011;63361;52.384;20.930;2023-04-15T02:53:38;19.80;;;11.98;;
74833;SDS011;63361;52.384;20.930;2023-04-15T02:56:04;23.37;;;12.77;;
74833;SDS011;63361;52.384;20.930;2023-04-15T02:58:30;19.30;;;11.75;;
74833;SDS011;63361;52.384;20.930;2023-04-15T03:00:55;21.33;;;12.80;;
74833;SDS011;63361;52.384;20.930;2023-04-15T03:03:21;21.63;;;12.23;;
74833;SDS011;63361;52.384;20.930;2023-04-15T03:05:46;18.30;;;11.40;;
74833;SDS011;63361;52.384;20.930;2023-04-15T03:08:12;17.67;;;10.93;;
74833;SDS011;63361;52.384;20.930;2023-04-15T03:10:38;18.50;;;11.98;;
74833;SDS011;63361;52.384;20.930;2023-04-15T03:13:04;15.83;;;10.43;;
74833;SDS011;63361;52.384;20.930;2023-04-15T03:15:29;19.37;;;11.63;;
74833;SDS011;63361;52.384;20.930;2023-04-15T03:17:54;18.50;;;11.37;;
74833;SDS011;63361;52.384;20.930;2023-04-15T03:20:20;18.10;;;11.40;;
74833;SDS011;63361;52.384;20.930;2023-04-15T03:22:45;20.30;;;11.43;;
74833;SDS011;63361;52.384;20.930;2023-04-15T03:25:10;17.83;;;11.27;;
74833;SDS011;63361;52.384;20.930;2023-04-15T03:27:36;20.47;;;11.87;;
74833;SDS011;63361;52.384;20.930;2023-04-15T03:30:02;19.67;;;11.93;;
74833;SDS011;63361;52.384;20.930;2023-04-15T03:32:28;18.60;;;11.35;;
74833;SDS011;63361;52.384;20.930;2023-04-15T03:34:53;18.83;;;11.43;;
74833;SDS011;63361;52.384;20.930;2023-04-15T03:37:18;16.90;;;11.30;;
74833;SDS011;63361;52.384;20.930;2023-04-15T03:39:43;16.60;;;11.60;;
74833;SDS011;63361;52.384;20.930;2023-04-15T03:42:09;20.13;;;12.13;;
74833;SDS011;63361;52.384;20.930;2023-04-15T03:44:35;18.77;;;11.45;;
74833;SDS011;63361;52.384;20.930;2023-04-15T03:47:00;16.63;;;11.00;;
74833;SDS011;63361;52.384;20.930;2023-04-15T03:49:25;17.40;;;11.00;;
74833;SDS011;63361;52.384;20.930;2023-04-15T03:51:51;16.37;;;10.73;;
74833;SDS011;63361;52.384;20.930;2023-04-15T03:54:16;16.77;;;11.87;;
74833;SDS011;63361;52.384;20.930;2023-04-15T03:56:41;19.67;;;10.67;;
74833;SDS011;63361;52.384;20.930;2023-04-15T03:59:06;18.75;;;11.35;;
74833;SDS011;63361;52.384;20.930;2023-04-15T04:01:32;19.57;;;11.97;;
74833;SDS011;63361;52.384;20.930;2023-04-15T04:03:57;16.83;;;9.97;;
74833;SDS011;63361;52.384;20.930;2023-04-15T04:06:22;17.07;;;10.63;;
74833;SDS011;63361;52.384;20.930;2023-04-15T04:08:48;18.97;;;11.30;;
74833;SDS011;63361;52.384;20.930;2023-04-15T04:11:13;14.90;;;9.60;;
74833;SDS011;63361;52.384;20.930;2023-04-15T04:13:39;18.40;;;10.43;;
74833;SDS011;63361;52.384;20.930;2023-04-15T04:16:04;18.77;;;9.73;;
74833;SDS011;63361;52.384;20.930;2023-04-15T04:18:30;17.83;;;9.90;;
74833;SDS011;63361;52.384;20.930;2023-04-15T04:20:56;15.27;;;9.52;;
74833;SDS011;63361;52.384;20.930;2023-04-15T04:23:21;17.77;;;10.37;;
74833;SDS011;63361;52.384;20.930;2023-04-15T04:25:47;19.40;;;10.87;;
74833;SDS011;63361;52.384;20.930;2023-04-15T04:28:12;17.15;;;10.40;;
74833;SDS011;63361;52.384;20.930;2023-04-15T04:30:37;16.33;;;10.20;;
74833;SDS011;63361;52.384;20.930;2023-04-15T04:33:03;17.57;;;10.33;;
74833;SDS011;63361;52.384;20.930;2023-04-15T04:35:28;15.60;;;10.10;;
74833;SDS011;63361;52.384;20.930;2023-04-15T04:37:54;16.77;;;10.10;;
74833;SDS011;63361;52.384;20.930;2023-04-15T04:40:20;17.42;;;10.70;;
74833;SDS011;63361;52.384;20.930;2023-04-15T04:42:45;17.83;;;10.10;;
74833;SDS011;63361;52.384;20.930;2023-04-15T04:45:10;19.50;;;10.20;;
74833;SDS011;63361;52.384;20.930;2023-04-15T04:47:36;18.30;;;10.40;;
74833;SDS011;63361;52.384;20.930;2023-04-15T04:50:01;19.33;;;11.03;;
74833;SDS011;63361;52.384;20.930;2023-04-15T04:52:27;16.48;;;9.93;;
74833;SDS011;63361;52.384;20.930;2023-04-15T04:54:52;18.33;;;10.47;;
74833;SDS011;63361;52.384;20.930;2023-04-15T04:57:18;17.93;;;10.63;;
74833;SDS011;63361;52.384;20.930;2023-04-15T04:59:43;21.73;;;12.63;;
74833;SDS011;63361;52.384;20.930;2023-04-15T05:02:08;18.50;;;10.93;;
74833;SDS011;63361;52.384;20.930;2023-04-15T05:04:34;19.03;;;10.43;;
74833;SDS011;63361;52.384;20.930;2023-04-15T05:07:00;20.75;;;11.80;;
74833;SDS011;63361;52.384;20.930;2023-04-15T05:09:26;19.97;;;12.50;;
74833;SDS011;63361;52.384;20.930;2023-04-15T05:11:52;19.13;;;10.30;;
74833;SDS011;63361;52.384;20.930;2023-04-15T05:14:17;20.17;;;12.35;;
74833;SDS011;63361;52.384;20.930;2023-04-15T05:16:42;25.63;;;12.30;;
74833;SDS011;63361;52.384;20.930;2023-04-15T05:19:08;19.73;;;11.80;;
74833;SDS011;63361;52.384;20.930;2023-04-15T05:21:33;20.57;;;12.70;;
74833;SDS011;63361;52.384;20.930;2023-04-15T05:23:58;20.73;;;11.97;;
74833;SDS011;63361;52.384;20.930;2023-04-15T05:26:24;23.03;;;12.57;;
74833;SDS011;63361;52.384;20.930;2023-04-15T05:28:49;21.70;;;12.97;;
74833;SDS011;63361;52.384;20.930;2023-04-15T05:31:15;22.97;;;13.43;;
74833;SDS011;63361;52.384;20.930;2023-04-15T05:33:40;23.15;;;14.13;;
74833;SDS011;63361;52.384;20.930;2023-04-15T05:36:06;21.77;;;11.40;;
74833;SDS011;63361;52.384;20.930;2023-04-15T05:38:31;21.50;;;12.77;;
74833;SDS011;63361;52.384;20.930;2023-04-15T05:40:57;22.80;;;13.10;;
74833;SDS011;63361;52.384;20.930;2023-04-15T05:43:22;17.83;;;11.77;;
74833;SDS011;63361;52.384;20.930;2023-04-15T05:45:47;22.27;;;13.10;;
74833;SDS011;63361;52.384;20.930;2023-04-15T05:48:13;22.20;;;13.70;;
74833;SDS011;63361;52.384;20.930;2023-04-15T05:50:41;22.10;;;13.70;;
74833;SDS011;63361;52.384;20.930;2023-04-15T05:53:07;20.90;;;13.13;;
74833;SDS011;63361;52.384;20.930;2023-04-15T05:55:33;24.48;;;13.40;;
74833;SDS011;63361;52.384;20.930;2023-04-15T05:57:58;24.00;;;13.20;;
74833;SDS011;63361;52.384;20.930;2023-04-15T06:00:23;19.40;;;12.57;;
74833;SDS011;63361;52.384;20.930;2023-04-15T06:02:49;19.40;;;11.17;;
74833;SDS011;63361;52.384;20.930;2023-04-15T06:05:15;21.23;;;11.20;;
74833;SDS011;63361;52.384;20.930;2023-04-15T06:07:40;23.60;;;13.03;;
74833;SDS011;63361;52.384;20.930;2023-04-15T06:10:07;21.85;;;12.82;;
74833;SDS011;63361;52.384;20.930;2023-04-15T06:12:33;18.43;;;11.50;;
74833;SDS011;63361;52.384;20.930;2023-04-15T06:14:59;20.20;;;11.73;;
74833;SDS011;63361;52.384;20.930;2023-04-15T06:17:24;18.83;;;11.73;;
74833;SDS011;63361;52.384;20.930;2023-04-15T06:19:49;19.13;;;12.20;;
74833;SDS011;63361;52.384;20.930;2023-04-15T06:22:19;16.75;;;10.10;;
74833;SDS011;63361;52.384;20.930;2023-04-15T06:24:48;16.05;;;9.27;;
74833;SDS011;63361;52.384;20.930;2023-04-15T06:27:17;18.03;;;10.03;;
74833;SDS011;63361;52.384;20.930;2023-04-15T06:29:43;18.15;;;11.60;;
74833;SDS011;63361;52.384;20.930;2023-04-15T06:32:08;20.17;;;11.40;;
74833;SDS011;63361;52.384;20.930;2023-04-15T06:34:35;22.20;;;11.77;;
74833;SDS011;63361;52.384;20.930;2023-04-15T06:37:01;21.30;;;12.00;;
74833;SDS011;63361;52.384;20.930;2023-04-15T06:39:26;19.45;;;11.73;;
74833;SDS011;63361;52.384;20.930;2023-04-15T06:41:51;18.00;;;10.20;;
74833;SDS011;63361;52.384;20.930;2023-04-15T06:44:17;19.20;;;11.23;;
74833;SDS011;63361;52.384;20.930;2023-04-15T06:46:42;20.33;;;10.93;;
74833;SDS011;63361;52.384;20.930;2023-04-15T06:49:08;18.67;;;10.85;;
74833;SDS011;63361;52.384;20.930;2023-04-15T06:51:34;21.13;;;11.47;;
74833;SDS011;63361;52.384;20.930;2023-04-15T06:54:00;19.63;;;11.68;;
74833;SDS011;63361;52.384;20.930;2023-04-15T06:56:26;20.23;;;12.63;;
74833;SDS011;63361;52.384;20.930;2023-04-15T06:58:51;20.50;;;10.93;;
74833;SDS011;63361;52.384;20.930;2023-04-15T07:01:17;18.73;;;11.93;;
74833;SDS011;63361;52.384;20.930;2023-04-15T07:03:42;22.57;;;12.27;;
74833;SDS011;63361;52.384;20.930;2023-04-15T07:06:08;21.67;;;12.23;;
74833;SDS011;63361;52.384;20.930;2023-04-15T07:08:33;22.23;;;11.93;;
74833;SDS011;63361;52.384;20.930;2023-04-15T07:10:59;21.30;;;11.13;;
74833;SDS011;63361;52.384;20.930;2023-04-15T07:13:25;24.63;;;13.57;;
74833;SDS011;63361;52.384;20.930;2023-04-15T07:15:51;21.77;;;13.70;;
74833;SDS011;63361;52.384;20.930;2023-04-15T07:18:16;28.10;;;14.80;;
74833;SDS011;63361;52.384;20.930;2023-04-15T07:20:41;21.53;;;11.97;;
74833;SDS011;63361;52.384;20.930;2023-04-15T07:23:07;17.33;;;11.45;;
74833;SDS011;63361;52.384;20.930;2023-04-15T07:25:32;19.07;;;11.10;;
74833;SDS011;63361;52.384;20.930;2023-04-15T07:27:58;18.83;;;11.90;;
74833;SDS011;63361;52.384;20.930;2023-04-15T07:30:23;18.90;;;10.57;;
74833;SDS011;63361;52.384;20.930;2023-04-15T07:32:48;16.93;;;10.43;;
74833;SDS011;63361;52.384;20.930;2023-04-15T07:35:14;17.83;;;11.03;;
74833;SDS011;63361;52.384;20.930;2023-04-15T07:37:39;17.05;;;10.20;;
74833;SDS011;63361;52.384;20.930;2023-04-15T07:40:07;18.90;;;10.57;;
74833;SDS011;63361;52.384;20.930;2023-04-15T07:42:33;16.85;;;10.23;;
74833;SDS011;63361;52.384;20.930;2023-04-15T07:44:59;14.68;;;9.00;;
74833;SDS011;63361;52.384;20.930;2023-04-15T07:47:24;15.67;;;9.97;;
74833;SDS011;63361;52.384;20.930;2023-04-15T07:49:51;16.27;;;10.27;;
74833;SDS011;63361;52.384;20.930;2023-04-15T07:52:16;17.93;;;9.97;;
74833;SDS011;63361;52.384;20.930;2023-04-15T07:54:42;13.83;;;7.80;;
74833;SDS011;63361;52.384;20.930;2023-04-15T07:57:07;17.20;;;9.03;;
74833;SDS011;63361;52.384;20.930;2023-04-15T07:59:33;12.03;;;7.53;;
74833;SDS011;63361;52.384;20.930;2023-04-15T08:01:58;12.67;;;8.00;;
74833;SDS011;63361;52.384;20.930;2023-04-15T08:04:23;13.30;;;7.93;;
74833;SDS011;63361;52.384;20.930;2023-04-15T08:06:49;12.93;;;7.33;;
74833;SDS011;63361;52.384;20.930;2023-04-15T08:09:14;13.67;;;8.23;;
74833;SDS011;63361;52.384;20.930;2023-04-15T08:11:40;12.05;;;7.47;;
74833;SDS011;63361;52.384;20.930;2023-04-15T08:14:06;13.23;;;7.10;;
74833;SDS011;63361;52.384;20.930;2023-04-15T08:16:31;10.85;;;6.72;;
74833;SDS011;63361;52.384;20.930;2023-04-15T08:18:57;12.20;;;7.27;;
74833;SDS011;63361;52.384;20.930;2023-04-15T08:21:22;11.90;;;7.03;;
74833;SDS011;63361;52.384;20.930;2023-04-15T08:23:49;12.30;;;7.18;;
74833;SDS011;63361;52.384;20.930;2023-04-15T08:26:16;11.95;;;7.30;;
74833;SDS011;63361;52.384;20.930;2023-04-15T08:28:42;11.50;;;6.40;;
74833;SDS011;63361;52.384;20.930;2023-04-15T08:31:09;10.05;;;6.22;;
74833;SDS011;63361;52.384;20.930;2023-04-15T08:33:34;11.43;;;6.97;;
74833;SDS011;63361;52.384;20.930;2023-04-15T08:35:59;8.80;;;5.50;;
74833;SDS011;63361;52.384;20.930;2023-04-15T08:38:25;11.33;;;7.07;;
74833;SDS011;63361;52.384;20.930;2023-04-15T08:40:50;13.27;;;7.55;;
74833;SDS011;63361;52.384;20.930;2023-04-15T08:43:23;12.30;;;7.70;;
74833;SDS011;63361;52.384;20.930;2023-04-15T08:45:54;11.20;;;6.80;;
74833;SDS011;63361;52.384;20.930;2023-04-15T08:48:20;10.70;;;5.93;;
74833;SDS011;63361;52.384;20.930;2023-04-15T08:50:48;10.02;;;6.28;;
74833;SDS011;63361;52.384;20.930;2023-04-15T08:53:15;11.50;;;6.13;;
74833;SDS011;63361;52.384;20.930;2023-04-15T08:55:44;9.25;;;6.00;;
74833;SDS011;63361;52.384;20.930;2023-04-15T08:58:11;10.07;;;6.55;;
74833;SDS011;63361;52.384;20.930;2023-04-15T09:00:41;10.05;;;6.07;;
74833;SDS011;63361;52.384;20.930;2023-04-15T09:03:07;12.40;;;7.70;;
74833;SDS011;63361;52.384;20.930;2023-04-15T09:05:33;10.02;;;6.20;;
74833;SDS011;63361;52.384;20.930;2023-04-15T09:08:00;10.80;;;6.70;;
74833;SDS011;63361;52.384;20.930;2023-04-15T09:10:26;10.55;;;6.72;;
74833;SDS011;63361;52.384;20.930;2023-04-15T09:12:52;11.00;;;6.27;;
74833;SDS011;63361;52.384;20.930;2023-04-15T09:15:18;11.90;;;7.05;;
74833;SDS011;63361;52.384;20.930;2023-04-15T09:17:44;10.10;;;6.20;;
74833;SDS011;63361;52.384;20.930;2023-04-15T09:20:14;9.20;;;5.40;;
74833;SDS011;63361;52.384;20.930;2023-04-15T09:22:41;9.65;;;5.78;;
74833;SDS011;63361;52.384;20.930;2023-04-15T09:30:20;7.85;;;5.10;;
74833;SDS011;63361;52.384;20.930;2023-04-15T09:32:48;7.70;;;4.73;;
74833;SDS011;63361;52.384;20.930;2023-04-15T09:35:13;7.93;;;4.65;;
74833;SDS011;63361;52.384;20.930;2023-04-15T09:37:39;9.27;;;5.93;;
74833;SDS011;63361;52.384;20.930;2023-04-15T09:40:04;9.27;;;5.93;;
74833;SDS011;63361;52.384;20.930;2023-04-15T09:42:30;8.60;;;5.03;;
74833;SDS011;63361;52.384;20.930;2023-04-15T09:45:06;9.30;;;5.20;;
74833;SDS011;63361;52.384;20.930;2023-04-15T09:47:35;15.25;;;7.82;;
74833;SDS011;63361;52.384;20.930;2023-04-15T09:50:01;8.43;;;4.97;;
74833;SDS011;63361;52.384;20.930;2023-04-15T09:52:27;8.43;;;5.20;;
74833;SDS011;63361;52.384;20.930;2023-04-15T09:54:53;8.70;;;5.25;;
74833;SDS011;63361;52.384;20.930;2023-04-15T09:57:22;7.60;;;4.57;;
74833;SDS011;63361;52.384;20.930;2023-04-15T09:59:48;7.32;;;4.82;;
74833;SDS011;63361;52.384;20.930;2023-04-15T10:02:14;7.60;;;4.80;;
74833;SDS011;63361;52.384;20.930;2023-04-15T10:04:42;7.82;;;4.90;;
74833;SDS011;63361;52.384;20.930;2023-04-15T10:07:09;9.43;;;4.80;;
74833;SDS011;63361;52.384;20.930;2023-04-15T10:09:37;10.37;;;4.50;;
74833;SDS011;63361;52.384;20.930;2023-04-15T10:12:03;7.72;;;4.47;;
74833;SDS011;63361;52.384;20.930;2023-04-15T10:14:33;8.73;;;4.85;;
74833;SDS011;63361;52.384;20.930;2023-04-15T10:17:02;8.57;;;5.00;;
74833;SDS011;63361;52.384;20.930;2023-04-15T10:19:32;8.57;;;5.20;;
74833;SDS011;63361;52.384;20.930;2023-04-15T10:22:00;10.93;;;4.60;;
74833;SDS011;63361;52.384;20.930;2023-04-15T10:24:27;6.75;;;4.55;;
74833;SDS011;63361;52.384;20.930;2023-04-15T10:26:53;7.50;;;4.88;;
74833;SDS011;63361;52.384;20.930;2023-04-15T10:29:19;7.82;;;4.53;;
74833;SDS011;63361;52.384;20.930;2023-04-15T10:31:44;5.93;;;3.67;;
74833;SDS011;63361;52.384;20.930;2023-04-15T10:34:11;7.25;;;4.60;;
74833;SDS011;63361;52.384;20.930;2023-04-15T10:36:37;8.95;;;4.25;;
74833;SDS011;63361;52.384;20.930;2023-04-15T10:39:06;6.07;;;4.00;;
74833;SDS011;63361;52.384;20.930;2023-04-15T10:42:06;7.47;;;4.43;;
74833;SDS011;63361;52.384;20.930;2023-04-15T10:44:40;7.38;;;4.80;;
74833;SDS011;63361;52.384;20.930;2023-04-15T10:47:17;8.00;;;5.50;;
74833;SDS011;63361;52.384;20.930;2023-04-15T10:49:57;6.72;;;3.72;;
74833;SDS011;63361;52.384;20.930;2023-04-15T10:52:25;8.07;;;4.43;;
74833;SDS011;63361;52.384;20.930;2023-04-15T10:57:39;6.78;;;4.38;;
74833;SDS011;63361;52.384;20.930;2023-04-15T11:00:09;9.10;;;5.30;;
74833;SDS011;63361;52.384;20.930;2023-04-15T11:02:51;8.10;;;4.82;;
74833;SDS011;63361;52.384;20.930;2023-04-15T11:05:17;6.63;;;4.37;;
74833;SDS011;63361;52.384;20.930;2023-04-15T11:12:45;6.82;;;4.70;;
74833;SDS011;63361;52.384;20.930;2023-04-15T11:20:34;6.40;;;4.20;;
74833;SDS011;63361;52.384;20.930;2023-04-15T11:23:00;7.55;;;4.43;;
74833;SDS011;63361;52.384;20.930;2023-04-15T11:25:27;7.28;;;4.57;;
74833;SDS011;63361;52.384;20.930;2023-04-15T11:27:53;5.87;;;3.80;;
74833;SDS011;63361;52.384;20.930;2023-04-15T11:30:20;6.45;;;4.07;;
74833;SDS011;63361;52.384;20.930;2023-04-15T11:32:46;6.10;;;3.40;;
74833;SDS011;63361;52.384;20.930;2023-04-15T11:35:12;5.78;;;3.40;;
74833;SDS011;63361;52.384;20.930;2023-04-15T11:37:37;6.40;;;4.03;;
74833;SDS011;63361;52.384;20.930;2023-04-15T11:40:03;6.10;;;3.60;;
74833;SDS011;63361;52.384;20.930;2023-04-15T11:42:30;6.57;;;3.88;;
74833;SDS011;63361;52.384;20.930;2023-04-15T11:45:08;5.80;;;3.63;;
74833;SDS011;63361;52.384;20.930;2023-04-15T11:47:37;6.53;;;3.83;;
74833;SDS011;63361;52.384;20.930;2023-04-15T11:50:19;6.40;;;3.80;;
74833;SDS011;63361;52.384;20.930;2023-04-15T11:52:53;5.93;;;3.37;;
74833;SDS011;63361;52.384;20.930;2023-04-15T11:55:22;4.93;;;2.85;;
74833;SDS011;63361;52.384;20.930;2023-04-15T11:57:49;5.53;;;3.28;;
74833;SDS011;63361;52.384;20.930;2023-04-15T12:00:15;6.68;;;3.47;;
74833;SDS011;63361;52.384;20.930;2023-04-15T12:02:41;6.10;;;3.72;;
74833;SDS011;63361;52.384;20.930;2023-04-15T12:05:07;10.13;;;3.43;;
74833;SDS011;63361;52.384;20.930;2023-04-15T12:07:56;5.63;;;3.60;;
74833;SDS011;63361;52.384;20.930;2023-04-15T12:10:25;6.30;;;3.40;;
74833;SDS011;63361;52.384;20.930;2023-04-15T12:12:51;6.25;;;3.20;;
74833;SDS011;63361;52.384;20.930;2023-04-15T12:15:17;7.03;;;3.35;;
74833;SDS011;63361;52.384;20.930;2023-04-15T12:17:46;8.13;;;3.50;;
74833;SDS011;63361;52.384;20.930;2023-04-15T12:20:11;5.90;;;3.25;;
74833;SDS011;63361;52.384;20.930;2023-04-15T12:22:36;5.63;;;3.27;;
74833;SDS011;63361;52.384;20.930;2023-04-15T12:25:02;5.97;;;3.10;;
74833;SDS011;63361;52.384;20.930;2023-04-15T12:27:28;5.35;;;3.25;;
74833;SDS011;63361;52.384;20.930;2023-04-15T12:30:05;5.13;;;2.80;;
74833;SDS011;63361;52.384;20.930;2023-04-15T12:32:33;6.43;;;3.10;;
74833;SDS011;63361;52.384;20.930;2023-04-15T12:34:59;5.90;;;3.45;;
74833;SDS011;63361;52.384;20.930;2023-04-15T12:37:25;8.00;;;3.45;;
74833;SDS011;63361;52.384;20.930;2023-04-15T12:39:50;7.33;;;3.90;;
74833;SDS011;63361;52.384;20.930;2023-04-15T12:42:17;7.88;;;3.40;;
74833;SDS011;63361;52.384;20.930;2023-04-15T12:44:43;5.83;;;3.40;;
74833;SDS011;63361;52.384;20.930;2023-04-15T12:47:09;6.70;;;3.43;;
74833;SDS011;63361;52.384;20.930;2023-04-15T12:49:35;6.20;;;3.13;;
74833;SDS011;63361;52.384;20.930;2023-04-15T12:52:01;5.40;;;3.40;;
74833;SDS011;63361;52.384;20.930;2023-04-15T12:54:27;7.22;;;3.88;;
74833;SDS011;63361;52.384;20.930;2023-04-15T12:56:54;6.63;;;3.77;;
74833;SDS011;63361;52.384;20.930;2023-04-15T12:59:20;8.93;;;3.58;;
74833;SDS011;63361;52.384;20.930;2023-04-15T13:01:46;6.05;;;3.65;;
74833;SDS011;63361;52.384;20.930;2023-04-15T13:04:12;6.90;;;3.77;;
74833;SDS011;63361;52.384;20.930;2023-04-15T13:06:38;7.28;;;3.75;;
74833;SDS011;63361;52.384;20.930;2023-04-15T13:09:03;7.57;;;4.43;;
74833;SDS011;63361;52.384;20.930;2023-04-15T13:11:30;7.13;;;4.40;;
74833;SDS011;63361;52.384;20.930;2023-04-15T13:13:57;6.95;;;3.90;;
74833;SDS011;63361;52.384;20.930;2023-04-15T13:16:26;5.35;;;2.90;;
74833;SDS011;63361;52.384;20.930;2023-04-15T13:18:51;5.80;;;3.60;;
74833;SDS011;63361;52.384;20.930;2023-04-15T13:21:17;6.30;;;3.83;;
74833;SDS011;63361;52.384;20.930;2023-04-15T13:23:43;6.63;;;3.97;;
74833;SDS011;63361;52.384;20.930;2023-04-15T13:26:08;6.50;;;3.63;;
74833;SDS011;63361;52.384;20.930;2023-04-15T13:28:34;6.05;;;3.10;;
74833;SDS011;63361;52.384;20.930;2023-04-15T13:30:59;7.33;;;2.90;;
74833;SDS011;63361;52.384;20.930;2023-04-15T13:33:25;6.60;;;3.10;;
74833;SDS011;63361;52.384;20.930;2023-04-15T13:35:51;5.78;;;2.60;;
74833;SDS011;63361;52.384;20.930;2023-04-15T13:38:16;6.20;;;2.20;;
74833;SDS011;63361;52.384;20.930;2023-04-15T13:40:41;5.60;;;2.33;;
74833;SDS011;63361;52.384;20.930;2023-04-15T13:43:06;6.37;;;2.20;;
74833;SDS011;63361;52.384;20.930;2023-04-15T13:45:32;4.90;;;1.70;;
74833;SDS011;63361;52.384;20.930;2023-04-15T13:47:57;4.10;;;1.80;;
74833;SDS011;63361;52.384;20.930;2023-04-15T13:50:23;4.27;;;1.67;;
74833;SDS011;63361;52.384;20.930;2023-04-15T13:52:49;4.10;;;1.70;;
74833;SDS011;63361;52.384;20.930;2023-04-15T13:55:14;4.30;;;1.88;;
74833;SDS011;63361;52.384;20.930;2023-04-15T13:57:39;4.60;;;1.83;;
74833;SDS011;63361;52.384;20.930;2023-04-15T14:00:05;5.80;;;2.23;;
74833;SDS011;63361;52.384;20.930;2023-04-15T14:02:31;4.85;;;2.00;;
74833;SDS011;63361;52.384;20.930;2023-04-15T14:04:57;6.23;;;2.30;;
74833;SDS011;63361;52.384;20.930;2023-04-15T14:07:22;4.53;;;2.07;;
74833;SDS011;63361;52.384;20.930;2023-04-15T14:09:47;8.43;;;1.90;;
74833;SDS011;63361;52.384;20.930;2023-04-15T14:12:13;3.90;;;1.77;;
74833;SDS011;63361;52.384;20.930;2023-04-15T14:14:39;5.63;;;2.20;;
74833;SDS011;63361;52.384;20.930;2023-04-15T14:17:04;4.82;;;2.10;;
74833;SDS011;63361;52.384;20.930;2023-04-15T14:19:30;4.70;;;2.40;;
74833;SDS011;63361;52.384;20.930;2023-04-15T14:21:56;5.03;;;2.30;;
74833;SDS011;63361;52.384;20.930;2023-04-15T14:24:21;7.67;;;2.50;;
74833;SDS011;63361;52.384;20.930;2023-04-15T14:26:47;4.55;;;2.17;;
74833;SDS011;63361;52.384;20.930;2023-04-15T14:29:12;4.23;;;2.13;;
74833;SDS011;63361;52.384;20.930;2023-04-15T14:31:38;4.30;;;1.97;;
74833;SDS011;63361;52.384;20.930;2023-04-15T14:34:04;4.35;;;2.03;;